sensor_id;sensor_type;location;lat;lon;timestamp;temperature;humidity
15087;DHT22;7642;48.478;8.952;2022-07-29T00:01:55;18.60;99.90
15087;DHT22;7642;48.478;8.952;2022-07-29T00:04:21;18.60;99.90
15087;DHT22;7642;48.478;8.952;2022-07-29T00:06:47;18.60;99.90
15087;DHT22;7642;48.478;8.952;2022-07-29T00:09:12;18.60;99.90
15087;DHT22;7642;48.478;8.952;2022-07-29T00:11:38;18.70;99.90
15087;DHT22;7642;48.478;8.952;2022-07-29T00:14:03;18.60;99.90
15087;DHT22;7642;48.478;8.952;2022-07-29T00:16:29;18.60;99.90
15087;DHT22;7642;48.478;8.952;2022-07-29T00:18:55;18.60;99.90
15087;DHT22;7642;48.478;8.952;2022-07-29T00:21:20;18.60;99.90
15087;DHT22;7642;48.478;8.952;2022-07-29T00:23:46;18.60;99.90
15087;DHT22;7642;48.478;8.952;2022-07-29T00:26:11;18.60;99.90
15087;DHT22;7642;48.478;8.952;2022-07-29T00:28:37;18.50;99.90
15087;DHT22;7642;48.478;8.952;2022-07-29T00:31:02;18.50;99.90
15087;DHT22;7642;48.478;8.952;2022-07-29T00:33:28;18.50;99.90
15087;DHT22;7642;48.478;8.952;2022-07-29T00:35:54;18.50;99.90
15087;DHT22;7642;48.478;8.952;2022-07-29T00:38:20;18.40;99.90
15087;DHT22;7642;48.478;8.952;2022-07-29T00:40:46;18.50;99.90
15087;DHT22;7642;48.478;8.952;2022-07-29T00:43:13;18.40;99.90
15087;DHT22;7642;48.478;8.952;2022-07-29T00:45:39;18.40;99.90
15087;DHT22;7642;48.478;8.952;2022-07-29T00:48:06;18.40;99.90
15087;DHT22;7642;48.478;8.952;2022-07-29T00:50:32;18.30;99.90
15087;DHT22;7642;48.478;8.952;2022-07-29T00:52:58;18.30;99.90
15087;DHT22;7642;48.478;8.952;2022-07-29T00:55:24;18.20;99.90
15087;DHT22;7642;48.478;8.952;2022-07-29T00:57:50;18.20;99.90
15087;DHT22;7642;48.478;8.952;2022-07-29T01:00:21;18.20;99.90
15087;DHT22;7642;48.478;8.952;2022-07-29T01:02:48;18.20;99.90
15087;DHT22;7642;48.478;8.952;2022-07-29T01:05:16;18.10;99.90
15087;DHT22;7642;48.478;8.952;2022-07-29T01:07:42;18.00;99.90
15087;DHT22;7642;48.478;8.952;2022-07-29T01:10:09;18.00;99.90
15087;DHT22;7642;48.478;8.952;2022-07-29T01:12:37;18.10;99.90
15087;DHT22;7642;48.478;8.952;2022-07-29T01:15:05;18.10;99.90
15087;DHT22;7642;48.478;8.952;2022-07-29T01:20:36;17.80;99.90
15087;DHT22;7642;48.478;8.952;2022-07-29T01:23:27;17.90;99.90
15087;DHT22;7642;48.478;8.952;2022-07-29T01:34:08;17.80;99.90
15087;DHT22;7642;48.478;8.952;2022-07-29T01:36:40;17.80;99.90
15087;DHT22;7642;48.478;8.952;2022-07-29T01:39:16;17.70;99.90
15087;DHT22;7642;48.478;8.952;2022-07-29T01:41:50;17.70;99.90
15087;DHT22;7642;48.478;8.952;2022-07-29T01:44:28;17.60;99.90
15087;DHT22;7642;48.478;8.952;2022-07-29T01:46:58;17.60;99.90
15087;DHT22;7642;48.478;8.952;2022-07-29T01:49:31;17.50;99.90
15087;DHT22;7642;48.478;8.952;2022-07-29T01:52:07;17.50;99.90
15087;DHT22;7642;48.478;8.952;2022-07-29T01:54:43;17.50;99.90
15087;DHT22;7642;48.478;8.952;2022-07-29T01:57:14;17.40;99.90
15087;DHT22;7642;48.478;8.952;2022-07-29T01:59:41;17.40;99.90
15087;DHT22;7642;48.478;8.952;2022-07-29T02:02:10;17.40;99.90
15087;DHT22;7642;48.478;8.952;2022-07-29T02:04:37;17.40;99.90
15087;DHT22;7642;48.478;8.952;2022-07-29T02:07:06;17.40;99.90
15087;DHT22;7642;48.478;8.952;2022-07-29T02:09:35;17.50;99.90
15087;DHT22;7642;48.478;8.952;2022-07-29T02:12:02;17.40;99.90
15087;DHT22;7642;48.478;8.952;2022-07-29T02:14:31;17.30;99.90
15087;DHT22;7642;48.478;8.952;2022-07-29T02:16:59;17.30;99.90
15087;DHT22;7642;48.478;8.952;2022-07-29T02:19:27;17.30;99.90
15087;DHT22;7642;48.478;8.952;2022-07-29T02:21:54;17.30;99.90
15087;DHT22;7642;48.478;8.952;2022-07-29T02:24:22;17.30;99.90
15087;DHT22;7642;48.478;8.952;2022-07-29T02:26:49;17.30;99.90
15087;DHT22;7642;48.478;8.952;2022-07-29T02:29:18;17.30;99.90
15087;DHT22;7642;48.478;8.952;2022-07-29T02:31:46;17.20;99.90
15087;DHT22;7642;48.478;8.952;2022-07-29T02:34:13;17.20;99.90
15087;DHT22;7642;48.478;8.952;2022-07-29T02:36:42;17.10;99.90
15087;DHT22;7642;48.478;8.952;2022-07-29T02:39:10;17.00;99.90
15087;DHT22;7642;48.478;8.952;2022-07-29T02:41:43;17.00;99.90
15087;DHT22;7642;48.478;8.952;2022-07-29T02:44:12;17.00;99.90
15087;DHT22;7642;48.478;8.952;2022-07-29T02:46:43;17.00;99.90
15087;DHT22;7642;48.478;8.952;2022-07-29T02:51:46;16.90;99.90
15087;DHT22;7642;48.478;8.952;2022-07-29T02:57:01;16.90;99.90
15087;DHT22;7642;48.478;8.952;2022-07-29T02:59:30;17.40;99.90
15087;DHT22;7642;48.478;8.952;2022-07-29T03:01:59;16.90;99.90
15087;DHT22;7642;48.478;8.952;2022-07-29T03:04:27;16.90;99.90
15087;DHT22;7642;48.478;8.952;2022-07-29T03:06:55;16.80;99.90
15087;DHT22;7642;48.478;8.952;2022-07-29T03:09:24;16.80;99.90
15087;DHT22;7642;48.478;8.952;2022-07-29T03:11:50;16.80;99.90
15087;DHT22;7642;48.478;8.952;2022-07-29T03:14:17;16.80;99.90
15087;DHT22;7642;48.478;8.952;2022-07-29T03:16:44;16.80;99.90
15087;DHT22;7642;48.478;8.952;2022-07-29T03:19:10;16.80;99.90
15087;DHT22;7642;48.478;8.952;2022-07-29T03:21:36;16.80;99.90
15087;DHT22;7642;48.478;8.952;2022-07-29T03:24:01;16.80;99.90
15087;DHT22;7642;48.478;8.952;2022-07-29T03:26:27;16.80;99.90
15087;DHT22;7642;48.478;8.952;2022-07-29T03:28:53;16.70;99.90
15087;DHT22;7642;48.478;8.952;2022-07-29T03:31:20;16.70;99.90
15087;DHT22;7642;48.478;8.952;2022-07-29T03:33:45;16.70;99.90
15087;DHT22;7642;48.478;8.952;2022-07-29T03:36:11;16.70;99.90
15087;DHT22;7642;48.478;8.952;2022-07-29T03:38:37;16.60;99.90
15087;DHT22;7642;48.478;8.952;2022-07-29T03:41:10;16.60;99.90
15087;DHT22;7642;48.478;8.952;2022-07-29T03:43:38;16.70;99.90
15087;DHT22;7642;48.478;8.952;2022-07-29T03:46:10;16.60;99.90
15087;DHT22;7642;48.478;8.952;2022-07-29T03:48:39;16.70;99.90
15087;DHT22;7642;48.478;8.952;2022-07-29T03:51:07;16.60;99.90
15087;DHT22;7642;48.478;8.952;2022-07-29T03:53:32;16.60;99.90
15087;DHT22;7642;48.478;8.952;2022-07-29T03:56:01;16.60;99.90
15087;DHT22;7642;48.478;8.952;2022-07-29T03:58:27;16.60;99.90
15087;DHT22;7642;48.478;8.952;2022-07-29T04:00:55;16.70;99.90
15087;DHT22;7642;48.478;8.952;2022-07-29T04:03:22;16.60;99.90
15087;DHT22;7642;48.478;8.952;2022-07-29T04:06:03;16.60;99.90
15087;DHT22;7642;48.478;8.952;2022-07-29T04:08:28;16.60;99.90
15087;DHT22;7642;48.478;8.952;2022-07-29T04:10:54;16.60;99.90
15087;DHT22;7642;48.478;8.952;2022-07-29T04:13:20;16.50;99.90
15087;DHT22;7642;48.478;8.952;2022-07-29T04:15:46;17.10;99.90
15087;DHT22;7642;48.478;8.952;2022-07-29T04:18:11;16.50;99.90
15087;DHT22;7642;48.478;8.952;2022-07-29T04:20:37;16.50;99.90
15087;DHT22;7642;48.478;8.952;2022-07-29T04:23:02;16.50;99.90
15087;DHT22;7642;48.478;8.952;2022-07-29T04:25:28;16.50;99.90
15087;DHT22;7642;48.478;8.952;2022-07-29T04:27:54;16.50;99.90
15087;DHT22;7642;48.478;8.952;2022-07-29T04:30:25;16.50;99.90
15087;DHT22;7642;48.478;8.952;2022-07-29T04:32:51;16.50;99.90
15087;DHT22;7642;48.478;8.952;2022-07-29T04:35:17;16.40;99.90
15087;DHT22;7642;48.478;8.952;2022-07-29T04:37:43;16.50;99.90
15087;DHT22;7642;48.478;8.952;2022-07-29T04:40:09;16.60;99.90
15087;DHT22;7642;48.478;8.952;2022-07-29T04:42:35;16.60;99.90
15087;DHT22;7642;48.478;8.952;2022-07-29T04:45:00;16.60;99.90
15087;DHT22;7642;48.478;8.952;2022-07-29T04:49:52;16.70;99.90
15087;DHT22;7642;48.478;8.952;2022-07-29T04:52:17;16.70;99.90
15087;DHT22;7642;48.478;8.952;2022-07-29T04:54:43;16.70;99.90
15087;DHT22;7642;48.478;8.952;2022-07-29T04:59:34;16.90;99.90
15087;DHT22;7642;48.478;8.952;2022-07-29T05:02:00;17.00;99.90
15087;DHT22;7642;48.478;8.952;2022-07-29T05:09:17;17.30;99.90
15087;DHT22;7642;48.478;8.952;2022-07-29T05:11:43;17.40;99.90
15087;DHT22;7642;48.478;8.952;2022-07-29T05:14:09;17.60;99.90
15087;DHT22;7642;48.478;8.952;2022-07-29T05:16:34;17.70;99.90
15087;DHT22;7642;48.478;8.952;2022-07-29T05:21:26;17.80;99.90
15087;DHT22;7642;48.478;8.952;2022-07-29T05:23:52;17.90;99.90
15087;DHT22;7642;48.478;8.952;2022-07-29T05:26:17;18.00;99.90
15087;DHT22;7642;48.478;8.952;2022-07-29T05:28:43;18.10;99.90
15087;DHT22;7642;48.478;8.952;2022-07-29T05:31:09;18.10;99.90
15087;DHT22;7642;48.478;8.952;2022-07-29T05:33:34;18.20;99.90
15087;DHT22;7642;48.478;8.952;2022-07-29T05:36:00;18.40;99.90
15087;DHT22;7642;48.478;8.952;2022-07-29T05:38:25;18.50;99.90
15087;DHT22;7642;48.478;8.952;2022-07-29T05:40:51;18.70;99.90
15087;DHT22;7642;48.478;8.952;2022-07-29T05:45:43;18.90;99.90
15087;DHT22;7642;48.478;8.952;2022-07-29T05:48:08;18.90;99.90
15087;DHT22;7642;48.478;8.952;2022-07-29T05:50:34;18.90;99.90
15087;DHT22;7642;48.478;8.952;2022-07-29T05:52:59;18.70;99.90
15087;DHT22;7642;48.478;8.952;2022-07-29T05:55:25;18.70;99.90
15087;DHT22;7642;48.478;8.952;2022-07-29T05:57:52;18.80;99.90
15087;DHT22;7642;48.478;8.952;2022-07-29T06:00:17;18.70;99.90
15087;DHT22;7642;48.478;8.952;2022-07-29T06:02:43;18.70;99.90
15087;DHT22;7642;48.478;8.952;2022-07-29T06:05:08;18.70;99.90
15087;DHT22;7642;48.478;8.952;2022-07-29T06:07:34;18.70;99.90
15087;DHT22;7642;48.478;8.952;2022-07-29T06:10:00;18.80;99.90
15087;DHT22;7642;48.478;8.952;2022-07-29T06:12:25;18.80;99.90
15087;DHT22;7642;48.478;8.952;2022-07-29T06:14:51;18.80;99.90
15087;DHT22;7642;48.478;8.952;2022-07-29T06:17:17;18.90;99.90
15087;DHT22;7642;48.478;8.952;2022-07-29T06:19:42;19.10;99.90
15087;DHT22;7642;48.478;8.952;2022-07-29T06:22:08;19.20;99.90
15087;DHT22;7642;48.478;8.952;2022-07-29T06:24:33;19.40;99.90
15087;DHT22;7642;48.478;8.952;2022-07-29T06:27:02;19.50;99.90
15087;DHT22;7642;48.478;8.952;2022-07-29T06:29:28;19.50;99.90
15087;DHT22;7642;48.478;8.952;2022-07-29T06:31:53;19.70;99.90
15087;DHT22;7642;48.478;8.952;2022-07-29T06:34:19;19.90;99.90
15087;DHT22;7642;48.478;8.952;2022-07-29T06:36:45;19.80;99.90
15087;DHT22;7642;48.478;8.952;2022-07-29T06:39:10;20.00;99.90
15087;DHT22;7642;48.478;8.952;2022-07-29T06:41:36;20.10;99.90
15087;DHT22;7642;48.478;8.952;2022-07-29T06:44:01;20.30;99.90
15087;DHT22;7642;48.478;8.952;2022-07-29T06:46:27;20.30;99.90
15087;DHT22;7642;48.478;8.952;2022-07-29T06:48:53;20.50;99.90
15087;DHT22;7642;48.478;8.952;2022-07-29T06:51:18;20.60;99.90
15087;DHT22;7642;48.478;8.952;2022-07-29T06:53:44;20.60;99.90
15087;DHT22;7642;48.478;8.952;2022-07-29T06:56:10;20.70;99.90
15087;DHT22;7642;48.478;8.952;2022-07-29T06:58:38;20.80;99.90
15087;DHT22;7642;48.478;8.952;2022-07-29T07:01:05;20.80;99.90
15087;DHT22;7642;48.478;8.952;2022-07-29T07:03:31;20.80;99.90
15087;DHT22;7642;48.478;8.952;2022-07-29T07:05:57;20.80;99.90
15087;DHT22;7642;48.478;8.952;2022-07-29T07:08:23;20.90;99.90
15087;DHT22;7642;48.478;8.952;2022-07-29T07:10:52;20.80;99.90
15087;DHT22;7642;48.478;8.952;2022-07-29T07:13:18;20.80;99.90
15087;DHT22;7642;48.478;8.952;2022-07-29T07:15:45;20.80;99.90
15087;DHT22;7642;48.478;8.952;2022-07-29T07:18:10;20.80;99.90
15087;DHT22;7642;48.478;8.952;2022-07-29T07:20:36;20.90;99.90
15087;DHT22;7642;48.478;8.952;2022-07-29T07:23:03;20.90;99.90
15087;DHT22;7642;48.478;8.952;2022-07-29T07:25:29;21.00;99.90
15087;DHT22;7642;48.478;8.952;2022-07-29T07:27:55;21.10;99.90
15087;DHT22;7642;48.478;8.952;2022-07-29T07:30:21;21.20;99.90
15087;DHT22;7642;48.478;8.952;2022-07-29T07:32:46;21.30;99.90
15087;DHT22;7642;48.478;8.952;2022-07-29T07:35:12;21.30;99.90
15087;DHT22;7642;48.478;8.952;2022-07-29T07:37:38;21.20;99.90
15087;DHT22;7642;48.478;8.952;2022-07-29T07:40:07;21.40;99.90
15087;DHT22;7642;48.478;8.952;2022-07-29T07:42:33;21.40;99.90
15087;DHT22;7642;48.478;8.952;2022-07-29T07:44:59;21.70;99.90
15087;DHT22;7642;48.478;8.952;2022-07-29T07:47:26;22.10;99.90
15087;DHT22;7642;48.478;8.952;2022-07-29T07:49:52;22.30;99.90
15087;DHT22;7642;48.478;8.952;2022-07-29T07:52:19;22.40;99.90
15087;DHT22;7642;48.478;8.952;2022-07-29T07:54:47;22.40;99.90
15087;DHT22;7642;48.478;8.952;2022-07-29T07:57:15;22.60;99.90
15087;DHT22;7642;48.478;8.952;2022-07-29T07:59:41;22.70;99.90
15087;DHT22;7642;48.478;8.952;2022-07-29T08:02:08;22.70;99.90
15087;DHT22;7642;48.478;8.952;2022-07-29T08:04:35;23.00;99.90
15087;DHT22;7642;48.478;8.952;2022-07-29T08:07:01;23.30;99.90
15087;DHT22;7642;48.478;8.952;2022-07-29T08:09:28;23.40;99.90
15087;DHT22;7642;48.478;8.952;2022-07-29T08:11:54;23.40;99.90
15087;DHT22;7642;48.478;8.952;2022-07-29T08:16:46;23.40;99.90
15087;DHT22;7642;48.478;8.952;2022-07-29T08:19:12;23.60;99.90
15087;DHT22;7642;48.478;8.952;2022-07-29T08:21:38;24.00;99.90
15087;DHT22;7642;48.478;8.952;2022-07-29T08:24:04;23.90;99.90
15087;DHT22;7642;48.478;8.952;2022-07-29T08:26:49;23.90;99.90
15087;DHT22;7642;48.478;8.952;2022-07-29T08:29:14;24.00;99.90
15087;DHT22;7642;48.478;8.952;2022-07-29T08:31:41;24.20;99.90
15087;DHT22;7642;48.478;8.952;2022-07-29T08:34:07;24.30;99.90
15087;DHT22;7642;48.478;8.952;2022-07-29T08:36:34;24.30;99.90
15087;DHT22;7642;48.478;8.952;2022-07-29T08:39:00;24.40;99.90
15087;DHT22;7642;48.478;8.952;2022-07-29T08:41:27;24.20;99.90
15087;DHT22;7642;48.478;8.952;2022-07-29T08:43:52;24.40;99.90
15087;DHT22;7642;48.478;8.952;2022-07-29T08:46:19;24.40;99.90
15087;DHT22;7642;48.478;8.952;2022-07-29T08:48:45;24.90;99.90
15087;DHT22;7642;48.478;8.952;2022-07-29T08:51:17;24.90;99.90
15087;DHT22;7642;48.478;8.952;2022-07-29T08:53:45;24.90;99.90
15087;DHT22;7642;48.478;8.952;2022-07-29T08:56:14;24.90;99.90
15087;DHT22;7642;48.478;8.952;2022-07-29T08:58:42;24.90;99.90
15087;DHT22;7642;48.478;8.952;2022-07-29T09:01:15;25.30;99.90
15087;DHT22;7642;48.478;8.952;2022-07-29T09:03:44;25.50;99.90
15087;DHT22;7642;48.478;8.952;2022-07-29T09:06:13;25.60;99.90
15087;DHT22;7642;48.478;8.952;2022-07-29T09:08:39;25.60;99.90
15087;DHT22;7642;48.478;8.952;2022-07-29T09:11:06;25.50;99.90
15087;DHT22;7642;48.478;8.952;2022-07-29T09:13:33;25.60;99.90
15087;DHT22;7642;48.478;8.952;2022-07-29T09:15:59;25.40;99.90
15087;DHT22;7642;48.478;8.952;2022-07-29T09:18:44;25.30;99.90
15087;DHT22;7642;48.478;8.952;2022-07-29T09:21:13;25.40;99.90
15087;DHT22;7642;48.478;8.952;2022-07-29T09:24:08;25.50;99.90
15087;DHT22;7642;48.478;8.952;2022-07-29T09:26:39;25.70;99.90
15087;DHT22;7642;48.478;8.952;2022-07-29T09:29:15;25.70;99.90
15087;DHT22;7642;48.478;8.952;2022-07-29T09:31:45;25.80;99.90
15087;DHT22;7642;48.478;8.952;2022-07-29T09:34:13;25.80;99.90
15087;DHT22;7642;48.478;8.952;2022-07-29T09:36:42;25.90;99.90
15087;DHT22;7642;48.478;8.952;2022-07-29T09:39:09;25.90;99.90
15087;DHT22;7642;48.478;8.952;2022-07-29T09:42:04;25.90;99.90
15087;DHT22;7642;48.478;8.952;2022-07-29T09:44:49;26.20;99.90
15087;DHT22;7642;48.478;8.952;2022-07-29T09:47:17;26.50;99.90
15087;DHT22;7642;48.478;8.952;2022-07-29T09:49:59;26.90;99.90
15087;DHT22;7642;48.478;8.952;2022-07-29T09:52:29;26.90;99.90
15087;DHT22;7642;48.478;8.952;2022-07-29T09:55:09;27.10;99.90
15087;DHT22;7642;48.478;8.952;2022-07-29T09:57:35;27.40;99.90
15087;DHT22;7642;48.478;8.952;2022-07-29T10:00:09;27.70;99.90
15087;DHT22;7642;48.478;8.952;2022-07-29T10:02:36;27.70;99.90
15087;DHT22;7642;48.478;8.952;2022-07-29T10:05:04;28.10;99.90
15087;DHT22;7642;48.478;8.952;2022-07-29T10:07:44;28.20;99.90
15087;DHT22;7642;48.478;8.952;2022-07-29T10:10:10;28.30;99.90
15087;DHT22;7642;48.478;8.952;2022-07-29T10:12:49;28.70;99.90
15087;DHT22;7642;48.478;8.952;2022-07-29T10:15:16;28.50;98.60
15087;DHT22;7642;48.478;8.952;2022-07-29T10:17:41;28.50;96.90
15087;DHT22;7642;48.478;8.952;2022-07-29T10:20:08;27.90;97.10
15087;DHT22;7642;48.478;8.952;2022-07-29T10:22:34;27.60;97.30
15087;DHT22;7642;48.478;8.952;2022-07-29T10:25:00;27.30;96.80
15087;DHT22;7642;48.478;8.952;2022-07-29T10:27:26;27.10;97.40
15087;DHT22;7642;48.478;8.952;2022-07-29T10:29:51;27.20;97.70
15087;DHT22;7642;48.478;8.952;2022-07-29T10:32:33;27.30;96.90
15087;DHT22;7642;48.478;8.952;2022-07-29T10:43:29;27.10;97.60
15087;DHT22;7642;48.478;8.952;2022-07-29T10:45:57;23.40;96.60
15087;DHT22;7642;48.478;8.952;2022-07-29T10:48:24;27.00;96.90
15087;DHT22;7642;48.478;8.952;2022-07-29T10:51:01;27.00;97.30
15087;DHT22;7642;48.478;8.952;2022-07-29T10:53:50;27.00;96.50
15087;DHT22;7642;48.478;8.952;2022-07-29T10:56:27;27.30;96.40
15087;DHT22;7642;48.478;8.952;2022-07-29T11:01:43;27.40;94.60
15087;DHT22;7642;48.478;8.952;2022-07-29T11:04:09;27.40;94.80
15087;DHT22;7642;48.478;8.952;2022-07-29T11:09:25;27.40;95.90
15087;DHT22;7642;48.478;8.952;2022-07-29T11:11:51;27.30;96.40
15087;DHT22;7642;48.478;8.952;2022-07-29T11:14:18;26.90;98.60
15087;DHT22;7642;48.478;8.952;2022-07-29T11:17:01;26.50;99.90
15087;DHT22;7642;48.478;8.952;2022-07-29T11:19:28;26.50;99.90
15087;DHT22;7642;48.478;8.952;2022-07-29T11:21:53;26.80;99.90
15087;DHT22;7642;48.478;8.952;2022-07-29T11:24:28;27.30;99.90
15087;DHT22;7642;48.478;8.952;2022-07-29T11:27:11;27.20;99.90
15087;DHT22;7642;48.478;8.952;2022-07-29T11:29:53;27.50;99.90
15087;DHT22;7642;48.478;8.952;2022-07-29T11:32:19;27.40;99.90
15087;DHT22;7642;48.478;8.952;2022-07-29T11:34:46;27.30;99.90
15087;DHT22;7642;48.478;8.952;2022-07-29T11:45:00;27.30;99.90
15087;DHT22;7642;48.478;8.952;2022-07-29T11:47:30;27.20;99.90
15087;DHT22;7642;48.478;8.952;2022-07-29T11:49:57;27.40;99.80
15087;DHT22;7642;48.478;8.952;2022-07-29T11:52:23;27.50;99.90
15087;DHT22;7642;48.478;8.952;2022-07-29T11:54:50;27.70;99.90
15087;DHT22;7642;48.478;8.952;2022-07-29T11:57:17;27.70;99.90
15087;DHT22;7642;48.478;8.952;2022-07-29T11:59:46;27.50;99.90
15087;DHT22;7642;48.478;8.952;2022-07-29T12:02:12;26.90;99.90
15087;DHT22;7642;48.478;8.952;2022-07-29T12:04:55;26.60;99.90
15087;DHT22;7642;48.478;8.952;2022-07-29T12:07:29;26.60;99.90
15087;DHT22;7642;48.478;8.952;2022-07-29T12:09:54;26.70;99.90
15087;DHT22;7642;48.478;8.952;2022-07-29T12:12:20;26.80;99.90
15087;DHT22;7642;48.478;8.952;2022-07-29T12:14:46;26.80;99.90
15087;DHT22;7642;48.478;8.952;2022-07-29T12:19:53;27.40;99.90
15087;DHT22;7642;48.478;8.952;2022-07-29T12:22:37;27.40;99.90
15087;DHT22;7642;48.478;8.952;2022-07-29T12:25:13;27.80;99.90
15087;DHT22;7642;48.478;8.952;2022-07-29T12:27:44;28.00;99.30
15087;DHT22;7642;48.478;8.952;2022-07-29T12:30:14;28.20;98.80
15087;DHT22;7642;48.478;8.952;2022-07-29T12:32:42;28.20;99.60
15087;DHT22;7642;48.478;8.952;2022-07-29T12:35:19;28.10;99.30
15087;DHT22;7642;48.478;8.952;2022-07-29T12:37:46;28.00;99.20
15087;DHT22;7642;48.478;8.952;2022-07-29T12:40:15;27.80;98.80
15087;DHT22;7642;48.478;8.952;2022-07-29T12:45:30;27.70;99.10
15087;DHT22;7642;48.478;8.952;2022-07-29T12:47:56;27.70;99.40
15087;DHT22;7642;48.478;8.952;2022-07-29T12:50:21;27.90;99.00
15087;DHT22;7642;48.478;8.952;2022-07-29T12:52:47;27.80;99.20
15087;DHT22;7642;48.478;8.952;2022-07-29T12:55:13;27.90;98.40
15087;DHT22;7642;48.478;8.952;2022-07-29T12:57:46;27.80;98.70
15087;DHT22;7642;48.478;8.952;2022-07-29T13:00:13;27.50;99.90
15087;DHT22;7642;48.478;8.952;2022-07-29T13:02:41;25.10;99.90
15087;DHT22;7642;48.478;8.952;2022-07-29T13:05:10;24.30;99.90
15087;DHT22;7642;48.478;8.952;2022-07-29T13:07:38;24.20;99.90
15087;DHT22;7642;48.478;8.952;2022-07-29T13:10:22;24.00;99.90
15087;DHT22;7642;48.478;8.952;2022-07-29T13:13:13;24.00;99.90
15087;DHT22;7642;48.478;8.952;2022-07-29T13:15:42;24.30;99.90
15087;DHT22;7642;48.478;8.952;2022-07-29T13:18:37;24.40;99.90
15087;DHT22;7642;48.478;8.952;2022-07-29T13:21:14;24.50;99.90
15087;DHT22;7642;48.478;8.952;2022-07-29T13:23:40;24.80;99.90
15087;DHT22;7642;48.478;8.952;2022-07-29T13:26:10;24.80;99.90
15087;DHT22;7642;48.478;8.952;2022-07-29T13:28:44;24.70;99.90
15087;DHT22;7642;48.478;8.952;2022-07-29T13:31:10;24.20;99.90
15087;DHT22;7642;48.478;8.952;2022-07-29T13:33:36;24.30;99.90
15087;DHT22;7642;48.478;8.952;2022-07-29T13:36:01;24.50;99.90
15087;DHT22;7642;48.478;8.952;2022-07-29T13:38:27;24.70;99.90
15087;DHT22;7642;48.478;8.952;2022-07-29T13:40:52;24.90;99.90
15087;DHT22;7642;48.478;8.952;2022-07-29T13:43:18;25.10;99.90
15087;DHT22;7642;48.478;8.952;2022-07-29T13:45:44;25.10;99.90
15087;DHT22;7642;48.478;8.952;2022-07-29T13:48:09;25.30;99.90
15087;DHT22;7642;48.478;8.952;2022-07-29T13:50:35;25.20;99.90
15087;DHT22;7642;48.478;8.952;2022-07-29T13:53:00;25.00;99.90
15087;DHT22;7642;48.478;8.952;2022-07-29T13:55:26;24.90;99.90
15087;DHT22;7642;48.478;8.952;2022-07-29T13:57:51;25.10;99.90
15087;DHT22;7642;48.478;8.952;2022-07-29T14:00:17;25.20;99.90
15087;DHT22;7642;48.478;8.952;2022-07-29T14:02:45;25.30;99.90
15087;DHT22;7642;48.478;8.952;2022-07-29T14:05:11;25.30;99.90
15087;DHT22;7642;48.478;8.952;2022-07-29T14:07:39;25.50;99.90
15087;DHT22;7642;48.478;8.952;2022-07-29T14:10:06;25.60;99.90
15087;DHT22;7642;48.478;8.952;2022-07-29T14:12:31;25.60;99.90
15087;DHT22;7642;48.478;8.952;2022-07-29T14:14:57;25.60;99.90
15087;DHT22;7642;48.478;8.952;2022-07-29T14:17:22;25.70;99.90
15087;DHT22;7642;48.478;8.952;2022-07-29T14:19:48;25.80;99.90
15087;DHT22;7642;48.478;8.952;2022-07-29T14:22:14;25.90;99.90
15087;DHT22;7642;48.478;8.952;2022-07-29T14:24:40;26.00;99.90
15087;DHT22;7642;48.478;8.952;2022-07-29T14:27:07;25.90;99.90
15087;DHT22;7642;48.478;8.952;2022-07-29T14:29:33;26.00;99.90
15087;DHT22;7642;48.478;8.952;2022-07-29T14:31:59;26.00;99.90
15087;DHT22;7642;48.478;8.952;2022-07-29T14:34:25;26.00;99.90
15087;DHT22;7642;48.478;8.952;2022-07-29T14:36:50;26.00;99.90
15087;DHT22;7642;48.478;8.952;2022-07-29T14:39:16;25.60;99.90
15087;DHT22;7642;48.478;8.952;2022-07-29T14:41:42;25.70;99.90
15087;DHT22;7642;48.478;8.952;2022-07-29T14:44:08;25.80;99.90
15087;DHT22;7642;48.478;8.952;2022-07-29T14:46:34;25.80;99.90
15087;DHT22;7642;48.478;8.952;2022-07-29T14:49:00;25.90;99.90
15087;DHT22;7642;48.478;8.952;2022-07-29T14:51:25;25.90;99.90
15087;DHT22;7642;48.478;8.952;2022-07-29T14:53:51;25.80;99.90
15087;DHT22;7642;48.478;8.952;2022-07-29T14:56:17;25.80;99.90
15087;DHT22;7642;48.478;8.952;2022-07-29T14:58:43;25.70;99.90
15087;DHT22;7642;48.478;8.952;2022-07-29T15:01:08;25.80;99.90
15087;DHT22;7642;48.478;8.952;2022-07-29T15:03:34;25.80;99.90
15087;DHT22;7642;48.478;8.952;2022-07-29T15:05:59;25.80;99.90
15087;DHT22;7642;48.478;8.952;2022-07-29T15:08:25;25.80;99.90
15087;DHT22;7642;48.478;8.952;2022-07-29T15:10:53;25.80;99.90
15087;DHT22;7642;48.478;8.952;2022-07-29T15:13:18;26.00;99.90
15087;DHT22;7642;48.478;8.952;2022-07-29T15:15:44;26.00;99.90
15087;DHT22;7642;48.478;8.952;2022-07-29T15:18:10;26.00;99.90
15087;DHT22;7642;48.478;8.952;2022-07-29T15:20:36;26.00;99.90
15087;DHT22;7642;48.478;8.952;2022-07-29T15:23:02;26.10;99.90
15087;DHT22;7642;48.478;8.952;2022-07-29T15:25:27;26.10;99.90
15087;DHT22;7642;48.478;8.952;2022-07-29T15:27:53;26.00;99.90
15087;DHT22;7642;48.478;8.952;2022-07-29T15:30:18;26.00;99.90
15087;DHT22;7642;48.478;8.952;2022-07-29T15:32:44;26.00;99.90
15087;DHT22;7642;48.478;8.952;2022-07-29T15:35:10;26.00;99.90
15087;DHT22;7642;48.478;8.952;2022-07-29T15:37:37;26.00;99.90
15087;DHT22;7642;48.478;8.952;2022-07-29T15:40:04;26.10;99.90
15087;DHT22;7642;48.478;8.952;2022-07-29T15:42:29;26.00;99.90
15087;DHT22;7642;48.478;8.952;2022-07-29T15:44:55;26.00;99.90
15087;DHT22;7642;48.478;8.952;2022-07-29T15:47:21;26.20;99.90
15087;DHT22;7642;48.478;8.952;2022-07-29T15:49:46;26.30;99.90
15087;DHT22;7642;48.478;8.952;2022-07-29T15:52:12;26.40;99.90
15087;DHT22;7642;48.478;8.952;2022-07-29T15:54:39;26.40;99.90
15087;DHT22;7642;48.478;8.952;2022-07-29T15:57:06;26.40;99.90
15087;DHT22;7642;48.478;8.952;2022-07-29T15:59:32;26.40;99.90
15087;DHT22;7642;48.478;8.952;2022-07-29T16:01:58;26.30;99.90
15087;DHT22;7642;48.478;8.952;2022-07-29T16:04:25;26.50;99.90
15087;DHT22;7642;48.478;8.952;2022-07-29T16:06:51;26.60;99.90
15087;DHT22;7642;48.478;8.952;2022-07-29T16:09:17;26.60;99.90
15087;DHT22;7642;48.478;8.952;2022-07-29T16:11:43;26.60;99.90
15087;DHT22;7642;48.478;8.952;2022-07-29T16:14:10;26.70;99.90
15087;DHT22;7642;48.478;8.952;2022-07-29T16:16:37;26.80;99.90
15087;DHT22;7642;48.478;8.952;2022-07-29T16:19:03;26.70;99.50
15087;DHT22;7642;48.478;8.952;2022-07-29T16:21:29;26.60;99.10
15087;DHT22;7642;48.478;8.952;2022-07-29T16:23:56;26.10;99.90
15087;DHT22;7642;48.478;8.952;2022-07-29T16:26:22;25.80;99.90
15087;DHT22;7642;48.478;8.952;2022-07-29T16:28:48;25.80;98.00
15087;DHT22;7642;48.478;8.952;2022-07-29T16:31:14;25.80;96.90
15087;DHT22;7642;48.478;8.952;2022-07-29T16:33:40;25.80;96.10
15087;DHT22;7642;48.478;8.952;2022-07-29T16:36:06;25.80;96.30
15087;DHT22;7642;48.478;8.952;2022-07-29T16:38:31;25.70;96.10
15087;DHT22;7642;48.478;8.952;2022-07-29T16:40:57;25.80;95.80
15087;DHT22;7642;48.478;8.952;2022-07-29T16:43:22;25.80;96.10
15087;DHT22;7642;48.478;8.952;2022-07-29T16:45:48;25.70;95.90
15087;DHT22;7642;48.478;8.952;2022-07-29T16:48:14;25.60;95.70
15087;DHT22;7642;48.478;8.952;2022-07-29T16:50:39;25.60;95.90